Aviation Digital Data Service (ADDS)

Output produced by METARs form (0259 UTC 21 August 2017)
found at http://aviationweather.gov/adds/metars/
 
KPOU 202327Z 2100/2124 VRB03KT P6SM FEW250 
     FM210600 00000KT 4SM BR FEW250 
     FM210800 00000KT 2SM BR FEW250 
     FM211200 00000KT P6SM FEW250 
     FM211700 23006KT P6SM FEW050